createdAt,value
2023-05-22T00:03:52.040Z,56.23
2023-05-22T00:08:53.544Z,56.31
2023-05-22T00:13:55.243Z,56.15
2023-05-22T00:18:57.383Z,55.81
2023-05-22T00:23:58.974Z,55.76
2023-05-22T00:29:00.428Z,55.74
2023-05-22T00:34:02.007Z,55.82
2023-05-22T00:39:03.608Z,55.97
2023-05-22T00:44:05.350Z,56.17
2023-05-22T00:49:06.867Z,56.18
2023-05-22T00:54:10.583Z,56.54
2023-05-22T00:59:12.202Z,56.51
2023-05-22T01:04:15.510Z,56.67
2023-05-22T01:09:17.232Z,57.15
2023-05-22T01:14:47.122Z,57.32
2023-05-22T01:20:06.849Z,57.72
2023-05-22T01:25:21.127Z,58.03
2023-05-22T01:30:47.226Z,58.11
2023-05-22T01:35:54.042Z,58.26
2023-05-22T01:40:56.743Z,58.32
2023-05-22T01:45:58.395Z,58.01
2023-05-22T01:51:23.182Z,58.10
2023-05-22T01:56:34.859Z,58.28
2023-05-22T02:01:38.765Z,58.08
2023-05-22T02:06:41.429Z,58.10
2023-05-22T02:11:43.695Z,58.51
2023-05-22T02:16:47.817Z,58.25
2023-05-22T02:21:49.462Z,58.47
2023-05-22T02:26:50.940Z,58.32
2023-05-22T02:31:54.107Z,58.25
2023-05-22T02:36:56.524Z,58.39
2023-05-22T02:41:58.065Z,58.44
2023-05-22T02:46:59.596Z,58.52
2023-05-22T02:52:01.712Z,58.86
2023-05-22T02:57:04.132Z,58.74
2023-05-22T03:02:06.088Z,58.57
2023-05-22T03:07:07.643Z,58.79
2023-05-22T03:12:09.925Z,58.80
2023-05-22T03:17:11.917Z,59.10
2023-05-22T03:22:13.333Z,59.08
2023-05-22T03:27:17.141Z,59.23
2023-05-22T03:32:18.645Z,59.42
2023-05-22T03:37:20.066Z,59.75
2023-05-22T03:42:21.817Z,59.79
2023-05-22T03:47:23.228Z,60.03
2023-05-22T03:52:25.777Z,60.16
2023-05-22T03:57:27.590Z,60.41
2023-05-22T04:02:30.196Z,60.98
2023-05-22T04:07:32.842Z,61.29
2023-05-22T04:12:34.473Z,61.48
2023-05-22T04:17:40.075Z,61.54
2023-05-22T04:22:41.714Z,61.35
2023-05-22T04:27:43.161Z,61.71
2023-05-22T04:32:44.719Z,61.77
2023-05-22T04:37:46.476Z,61.56
2023-05-22T04:42:48.154Z,61.54
2023-05-22T04:47:49.675Z,61.32
2023-05-22T04:52:51.224Z,61.50
2023-05-22T04:57:53.264Z,61.60
2023-05-22T05:02:55.582Z,61.51
2023-05-22T05:07:57.217Z,61.72
2023-05-22T05:12:58.662Z,61.58
2023-05-22T05:18:00.310Z,61.75
2023-05-22T05:23:02.070Z,61.36
2023-05-22T05:28:11.249Z,61.43
2023-05-22T05:33:13.568Z,61.16
2023-05-22T05:38:17.280Z,61.13
2023-05-22T05:43:19.271Z,60.92
2023-05-22T05:48:20.975Z,60.89
2023-05-22T05:53:22.411Z,60.42
2023-05-22T05:58:23.939Z,60.39
2023-05-22T06:03:27.969Z,59.81
2023-05-22T06:08:29.421Z,59.85
2023-05-22T06:13:31.121Z,59.78
2023-05-22T06:18:32.883Z,58.76
2023-05-22T06:23:34.249Z,58.41
2023-05-22T06:28:35.773Z,58.77
2023-05-22T06:33:37.759Z,58.17
2023-05-22T06:38:39.422Z,57.99
2023-05-22T06:43:41.116Z,58.04
2023-05-22T06:48:42.743Z,57.56
2023-05-22T06:53:44.352Z,57.67
2023-05-22T06:58:46.314Z,56.69
2023-05-22T07:03:47.700Z,56.46
2023-05-22T07:08:49.087Z,56.09
2023-05-22T07:13:51.093Z,56.33
2023-05-22T07:18:53.671Z,55.47
2023-05-22T07:23:55.090Z,54.31
2023-05-22T07:28:56.866Z,54.04
2023-05-22T07:33:58.285Z,54.10
2023-05-22T07:39:00.107Z,52.59
2023-05-22T07:44:01.561Z,53.17
2023-05-22T07:49:03.067Z,53.00
2023-05-22T07:54:04.906Z,52.86
2023-05-22T07:59:07.521Z,52.14
2023-05-22T08:04:09.456Z,51.55
2023-05-22T08:09:11.225Z,50.88
2023-05-22T08:14:12.677Z,49.90
2023-05-22T08:19:14.594Z,49.67
2023-05-22T08:24:16.476Z,50.06
2023-05-22T08:29:18.617Z,50.01
2023-05-22T08:34:19.985Z,49.30
2023-05-22T08:39:21.631Z,49.33
2023-05-22T08:44:25.091Z,48.83
2023-05-22T08:49:27.040Z,48.10
2023-05-22T08:54:30.656Z,47.47
2023-05-22T08:59:32.192Z,47.44
2023-05-22T09:04:33.725Z,45.66
2023-05-22T09:09:38.930Z,45.65
2023-05-22T09:14:44.230Z,45.87
2023-05-22T09:19:46.351Z,44.73
2023-05-22T09:24:47.824Z,44.79
2023-05-22T09:29:53.633Z,44.04
2023-05-22T09:35:03.205Z,43.41
2023-05-22T09:40:10.987Z,43.88
2023-05-22T09:45:13.131Z,41.06
2023-05-22T09:50:14.586Z,42.38
2023-05-22T09:55:16.886Z,42.58
2023-05-22T10:00:19.989Z,41.98
2023-05-22T10:05:22.883Z,41.40
2023-05-22T10:10:25.490Z,42.04
2023-05-22T10:15:27.386Z,41.57
2023-05-22T10:20:30.083Z,41.04
2023-05-22T10:25:31.655Z,41.28
2023-05-22T10:31:05.324Z,42.82
2023-05-22T10:36:56.048Z,41.24
2023-05-22T10:42:02.109Z,41.63
2023-05-22T10:47:11.416Z,41.28
2023-05-22T10:52:15.938Z,41.14
2023-05-22T10:57:17.699Z,40.78
2023-05-22T11:02:31.427Z,40.59
2023-05-22T11:07:42.425Z,40.15
2023-05-22T11:12:43.969Z,39.90
2023-05-22T11:17:51.861Z,38.84
2023-05-22T11:22:57.696Z,38.42
2023-05-22T11:28:01.952Z,37.91
2023-05-22T11:33:05.508Z,38.19
2023-05-22T11:38:07.684Z,38.01
2023-05-22T11:43:09.287Z,37.43
2023-05-22T11:48:14.608Z,37.48
2023-05-22T11:53:16.996Z,37.93
2023-05-22T11:58:27.236Z,37.75
2023-05-22T12:03:30.885Z,37.18
2023-05-22T12:08:32.453Z,37.05
2023-05-22T12:13:34.008Z,38.75
2023-05-22T12:18:37.457Z,37.80
2023-05-22T12:23:49.018Z,36.65
2023-05-22T12:28:54.404Z,36.28
2023-05-22T12:33:56.862Z,37.38
2023-05-22T12:38:58.208Z,36.65
2023-05-22T12:43:59.695Z,35.99
2023-05-22T12:49:01.503Z,36.49
2023-05-22T12:54:03.705Z,36.34
2023-05-22T12:59:05.149Z,35.92
2023-05-22T13:04:06.720Z,36.52
2023-05-22T13:09:08.293Z,36.33
2023-05-22T13:14:10.110Z,36.20
2023-05-22T13:19:12.113Z,36.48
2023-05-22T13:24:13.795Z,36.24
2023-05-22T13:29:15.264Z,37.18
2023-05-22T13:34:16.856Z,36.47
2023-05-22T13:39:18.515Z,36.95
2023-05-22T13:44:21.196Z,35.70
2023-05-22T13:49:22.605Z,37.88
2023-05-22T13:54:24.149Z,36.93
2023-05-22T13:59:25.632Z,36.07
2023-05-22T14:04:27.177Z,37.43
2023-05-22T14:09:30.174Z,36.97
2023-05-22T14:14:31.558Z,36.96
2023-05-22T14:19:33.097Z,36.63
2023-05-22T14:24:34.583Z,36.06
2023-05-22T14:29:36.106Z,35.42
2023-05-22T14:34:37.592Z,35.76
2023-05-22T14:39:39.073Z,36.50
2023-05-22T14:44:40.801Z,36.71
2023-05-22T14:49:42.236Z,38.26
2023-05-22T14:54:43.855Z,38.19
2023-05-22T14:59:45.528Z,38.85
2023-05-22T15:04:47.054Z,38.72
2023-05-22T15:09:48.635Z,39.64
2023-05-22T15:14:50.070Z,40.59
2023-05-22T15:19:51.438Z,39.66
2023-05-22T15:25:09.786Z,39.98
2023-05-22T15:30:12.241Z,39.70
2023-05-22T15:35:14.012Z,37.87
2023-05-22T15:40:18.238Z,37.88
2023-05-22T15:45:20.462Z,37.93
2023-05-22T15:50:22.008Z,37.44
2023-05-22T15:55:23.408Z,37.87
2023-05-22T16:00:26.214Z,37.71
2023-05-22T16:05:27.598Z,37.72
2023-05-22T16:10:29.159Z,38.08
2023-05-22T16:15:31.482Z,39.65
2023-05-22T16:20:34.017Z,39.81
2023-05-22T16:25:35.546Z,39.62
2023-05-22T16:30:37.156Z,39.78
2023-05-22T16:35:39.039Z,40.31
2023-05-22T16:40:40.796Z,40.14
2023-05-22T16:45:46.741Z,40.42
2023-05-22T16:50:48.325Z,41.56
2023-05-22T16:55:49.914Z,41.99
2023-05-22T17:00:51.464Z,42.28
2023-05-22T17:05:52.899Z,42.68
2023-05-22T17:10:55.359Z,43.99
2023-05-22T17:15:56.727Z,44.44
2023-05-22T17:20:58.263Z,44.62
2023-05-22T17:25:59.795Z,44.55
2023-05-22T17:31:01.192Z,45.02
2023-05-22T17:36:02.659Z,46.67
2023-05-22T17:41:04.210Z,48.43
2023-05-22T17:46:06.178Z,50.67
2023-05-22T17:51:07.807Z,53.22
2023-05-22T17:56:09.265Z,53.08
2023-05-22T18:01:10.761Z,53.10
2023-05-22T18:06:12.371Z,53.83
2023-05-22T18:11:13.775Z,53.13
2023-05-22T18:16:19.361Z,53.79
2023-05-22T18:21:20.814Z,54.99
2023-05-22T18:26:22.246Z,55.08
2023-05-22T18:31:26.211Z,55.94
2023-05-22T18:36:27.811Z,57.16
2023-05-22T18:41:29.149Z,56.74
2023-05-22T18:46:31.379Z,56.49
2023-05-22T18:51:33.356Z,57.07
2023-05-22T18:56:34.724Z,56.75
2023-05-22T19:01:36.283Z,56.46
2023-05-22T19:06:41.859Z,56.63
2023-05-22T19:11:43.471Z,55.97
2023-05-22T19:16:45.022Z,56.44
2023-05-22T19:21:46.393Z,56.18
2023-05-22T19:26:48.033Z,56.02
2023-05-22T19:31:49.419Z,55.71
2023-05-22T19:36:52.043Z,55.19
2023-05-22T19:41:54.525Z,54.51
2023-05-22T19:46:56.999Z,52.87
2023-05-22T19:51:59.630Z,51.20
2023-05-22T19:57:01.025Z,50.49
2023-05-22T20:02:02.490Z,48.79
2023-05-22T20:07:05.370Z,49.16
2023-05-22T20:12:07.228Z,49.01
2023-05-22T20:17:09.053Z,49.42
2023-05-22T20:22:11.165Z,49.29
2023-05-22T20:27:13.176Z,49.83
2023-05-22T20:32:14.568Z,51.14
2023-05-22T20:37:16.097Z,52.34
2023-05-22T20:42:19.622Z,53.98
2023-05-22T20:47:21.128Z,55.48
2023-05-22T20:52:24.803Z,56.93
2023-05-22T20:57:26.266Z,58.03
2023-05-22T21:02:27.700Z,58.91
2023-05-22T21:07:29.233Z,59.74
2023-05-22T21:12:31.041Z,60.52
2023-05-22T21:17:32.478Z,60.94
2023-05-22T21:22:34.037Z,62.24
2023-05-22T21:27:36.060Z,62.33
2023-05-22T21:32:37.690Z,62.70
2023-05-22T21:37:40.695Z,62.97
2023-05-22T21:42:47.009Z,63.15
2023-05-22T21:47:49.150Z,62.71
2023-05-22T21:52:50.725Z,63.42
2023-05-22T21:57:52.492Z,64.77
2023-05-22T22:02:55.116Z,65.40
2023-05-22T22:07:56.942Z,65.50
2023-05-22T22:12:58.412Z,65.66
2023-05-22T22:18:02.269Z,65.43
2023-05-22T22:23:05.301Z,65.50
2023-05-22T22:28:07.580Z,65.53
2023-05-22T22:33:09.333Z,65.46
2023-05-22T22:38:10.885Z,65.79
2023-05-22T22:43:12.331Z,66.16
2023-05-22T22:48:13.751Z,65.49
2023-05-22T22:53:15.171Z,65.45
2023-05-22T22:58:18.823Z,65.23
2023-05-22T23:03:20.289Z,65.52
2023-05-22T23:08:21.797Z,64.90
2023-05-22T23:13:23.355Z,65.31
2023-05-22T23:18:24.884Z,65.82
2023-05-22T23:23:28.492Z,66.65
2023-05-22T23:28:29.825Z,66.35
2023-05-22T23:33:31.212Z,67.27
2023-05-22T23:38:33.089Z,67.69
2023-05-22T23:43:34.689Z,67.33
2023-05-22T23:48:36.418Z,67.42
2023-05-22T23:53:37.973Z,67.47
2023-05-22T23:58:39.598Z,67.64
